createdAt,value
2023-03-18T00:00:28.448Z,3.20
2023-03-18T00:02:55.196Z,2.70
2023-03-18T00:05:21.986Z,2.70
2023-03-18T00:07:49.524Z,2.40
2023-03-18T00:10:16.858Z,2.40
2023-03-18T00:12:43.888Z,2.80
2023-03-18T00:15:13.070Z,2.30
2023-03-18T00:17:41.271Z,2.75
2023-03-18T00:20:09.507Z,2.30
2023-03-18T00:22:37.810Z,2.33
2023-03-18T00:25:07.078Z,2.45
2023-03-18T00:27:34.922Z,2.65
2023-03-18T00:30:02.027Z,2.28
2023-03-18T00:32:29.137Z,2.60
2023-03-18T00:34:56.990Z,2.67
2023-03-18T00:37:30.710Z,2.78
2023-03-18T00:40:10.583Z,2.67
2023-03-18T00:42:47.437Z,2.33
2023-03-18T00:45:17.169Z,2.60
2023-03-18T00:47:43.908Z,2.70
2023-03-18T00:50:11.905Z,2.53
2023-03-18T00:52:39.598Z,2.45
2023-03-18T00:55:07.096Z,2.75
2023-03-18T00:57:33.959Z,2.75
2023-03-18T01:00:00.559Z,2.60
2023-03-18T01:02:29.739Z,2.70
2023-03-18T01:04:57.152Z,2.60
2023-03-18T01:07:24.293Z,2.60
2023-03-18T01:09:50.954Z,3.47
2023-03-18T01:12:17.660Z,2.72
2023-03-18T01:14:44.272Z,2.50
2023-03-18T01:17:11.389Z,3.13
2023-03-18T01:19:38.677Z,2.67
2023-03-18T01:22:05.918Z,2.58
2023-03-18T01:24:32.579Z,3.13
2023-03-18T01:27:00.124Z,2.78
2023-03-18T01:29:26.761Z,2.78
2023-03-18T01:31:53.369Z,2.70
2023-03-18T01:34:20.118Z,2.70
2023-03-18T01:36:46.765Z,2.85
2023-03-18T01:39:14.428Z,3.33
2023-03-18T01:41:42.290Z,2.85
2023-03-18T01:44:17.709Z,2.90
2023-03-18T01:46:46.108Z,3.10
2023-03-18T01:49:19.094Z,3.00
2023-03-18T01:51:51.106Z,3.20
2023-03-18T01:54:19.201Z,2.85
2023-03-18T01:56:47.952Z,3.05
2023-03-18T01:59:15.644Z,3.38
2023-03-18T02:01:51.847Z,3.22
2023-03-18T02:04:19.767Z,3.10
2023-03-18T02:06:46.356Z,3.05
2023-03-18T02:09:13.387Z,3.35
2023-03-18T02:11:45.688Z,3.20
2023-03-18T02:14:14.930Z,3.50
2023-03-18T02:16:55.757Z,3.20
2023-03-18T02:19:45.629Z,3.20
2023-03-18T02:22:34.333Z,3.38
2023-03-18T02:25:33.767Z,3.38
2023-03-18T02:28:09.634Z,3.15
2023-03-18T02:30:58.983Z,3.10
2023-03-18T02:33:31.806Z,2.63
2023-03-18T02:36:04.548Z,3.60
2023-03-18T02:38:31.145Z,3.17
2023-03-18T02:40:57.879Z,3.00
2023-03-18T02:43:24.475Z,2.92
2023-03-18T02:46:32.678Z,2.88
2023-03-18T02:49:04.797Z,2.80
2023-03-18T02:51:31.384Z,2.83
2023-03-18T02:54:03.932Z,3.00
2023-03-18T02:56:30.692Z,2.83
2023-03-18T02:58:57.920Z,3.17
2023-03-18T03:01:24.966Z,4.13
2023-03-18T03:03:51.598Z,2.97
2023-03-18T03:06:18.740Z,2.80
2023-03-18T03:08:45.769Z,2.88
2023-03-18T03:11:12.732Z,2.80
2023-03-18T03:13:41.495Z,2.65
2023-03-18T03:16:10.224Z,2.60
2023-03-18T03:18:38.034Z,2.97
2023-03-18T03:21:05.323Z,2.85
2023-03-18T03:23:32.618Z,2.83
2023-03-18T03:25:59.426Z,2.65
2023-03-18T03:28:27.204Z,3.33
2023-03-18T03:30:55.802Z,3.08
2023-03-18T03:33:23.608Z,3.22
2023-03-18T03:35:50.699Z,3.00
2023-03-18T03:38:18.491Z,3.20
2023-03-18T03:40:46.814Z,3.15
2023-03-18T03:43:14.375Z,3.08
2023-03-18T03:45:42.701Z,2.90
2023-03-18T03:48:10.696Z,3.63
2023-03-18T03:50:38.689Z,3.55
2023-03-18T03:53:06.863Z,3.50
2023-03-18T03:55:33.974Z,4.20
2023-03-18T03:58:01.218Z,3.92
2023-03-18T04:00:28.363Z,4.15
2023-03-18T04:02:55.030Z,4.25
2023-03-18T04:05:24.620Z,4.20
2023-03-18T04:07:52.522Z,4.50
2023-03-18T04:10:20.682Z,4.30
2023-03-18T04:12:49.899Z,3.70
2023-03-18T04:15:19.959Z,4.10
2023-03-18T04:17:47.115Z,4.22
2023-03-18T04:20:14.894Z,3.75
2023-03-18T04:22:42.172Z,4.22
2023-03-18T04:25:11.186Z,4.32
2023-03-18T04:27:39.189Z,4.07
2023-03-18T04:30:08.262Z,3.90
2023-03-18T04:32:35.147Z,4.50
2023-03-18T04:35:01.830Z,4.65
2023-03-18T04:37:28.482Z,4.68
2023-03-18T04:39:55.597Z,5.15
2023-03-18T04:42:22.375Z,4.88
2023-03-18T04:44:49.589Z,5.32
2023-03-18T04:47:16.242Z,5.20
2023-03-18T04:49:43.100Z,4.95
2023-03-18T04:52:09.973Z,5.53
2023-03-18T04:54:37.432Z,5.75
2023-03-18T04:57:06.013Z,5.15
2023-03-18T04:59:32.608Z,5.45
2023-03-18T05:01:59.771Z,4.93
2023-03-18T05:04:26.419Z,5.75
2023-03-18T05:06:53.366Z,5.00
2023-03-18T05:09:20.097Z,6.10
2023-03-18T05:11:46.899Z,5.38
2023-03-18T05:14:13.893Z,6.55
2023-03-18T05:16:40.752Z,4.97
2023-03-18T05:19:09.699Z,5.70
2023-03-18T05:21:36.846Z,4.88
2023-03-18T05:24:03.870Z,5.55
2023-03-18T05:26:30.780Z,5.28
2023-03-18T05:28:57.709Z,5.20
2023-03-18T05:31:24.858Z,4.78
2023-03-18T05:33:51.919Z,5.18
2023-03-18T05:36:19.244Z,5.10
2023-03-18T05:38:46.103Z,5.30
2023-03-18T05:41:12.852Z,5.43
2023-03-18T05:43:39.720Z,4.65
2023-03-18T05:46:06.701Z,5.15
2023-03-18T05:48:33.345Z,4.60
2023-03-18T05:51:00.098Z,4.95
2023-03-18T05:53:26.918Z,4.50
2023-03-18T05:55:53.638Z,4.70
2023-03-18T05:58:21.207Z,5.30
2023-03-18T06:00:47.827Z,4.82
2023-03-18T06:03:15.529Z,5.05
2023-03-18T06:05:42.208Z,4.28
2023-03-18T06:08:08.827Z,4.53
2023-03-18T06:10:35.449Z,5.28
2023-03-18T06:13:02.068Z,5.88
2023-03-18T06:15:28.741Z,5.35
2023-03-18T06:17:55.414Z,5.18
2023-03-18T06:20:23.442Z,4.85
2023-03-18T06:22:50.364Z,4.85
2023-03-18T06:25:19.806Z,5.75
2023-03-18T06:27:48.069Z,5.35
2023-03-18T06:30:16.198Z,5.38
2023-03-18T06:32:43.886Z,5.05
2023-03-18T06:35:11.992Z,5.10
2023-03-18T06:37:39.289Z,5.32
2023-03-18T06:40:08.556Z,5.22
2023-03-18T06:42:35.721Z,5.50
2023-03-18T06:45:02.844Z,5.55
2023-03-18T06:47:30.673Z,5.78
2023-03-18T06:49:57.502Z,5.75
2023-03-18T06:52:24.168Z,5.90
2023-03-18T06:54:51.862Z,6.05
2023-03-18T06:57:18.679Z,5.78
2023-03-18T06:59:45.740Z,5.68
2023-03-18T07:02:13.266Z,6.30
2023-03-18T07:04:40.022Z,6.60
2023-03-18T07:07:07.443Z,5.75
2023-03-18T07:09:34.138Z,6.10
2023-03-18T07:12:01.304Z,6.15
2023-03-18T07:14:28.791Z,5.32
2023-03-18T07:16:56.277Z,7.03
2023-03-18T07:19:23.130Z,6.07
2023-03-18T07:21:50.484Z,6.60
2023-03-18T07:24:17.652Z,6.25
2023-03-18T07:26:45.609Z,6.03
2023-03-18T07:29:12.252Z,6.00
2023-03-18T07:31:40.058Z,7.00
2023-03-18T07:34:07.095Z,6.78
2023-03-18T07:36:33.747Z,6.90
2023-03-18T07:39:00.703Z,8.07
2023-03-18T07:41:27.809Z,6.85
2023-03-18T07:43:55.260Z,7.28
2023-03-18T07:46:23.046Z,6.70
2023-03-18T07:48:49.751Z,6.53
2023-03-18T07:51:16.639Z,8.43
2023-03-18T07:53:44.565Z,6.53
2023-03-18T07:56:11.749Z,7.00
2023-03-18T07:58:39.248Z,6.97
2023-03-18T08:01:06.244Z,6.45
2023-03-18T08:03:34.019Z,6.97
2023-03-18T08:06:01.415Z,7.07
2023-03-18T08:08:28.954Z,7.63
2023-03-18T08:11:00.516Z,7.40
2023-03-18T08:13:27.461Z,8.20
2023-03-18T08:15:54.376Z,6.88
2023-03-18T08:18:21.667Z,6.45
2023-03-18T08:20:49.989Z,7.15
2023-03-18T08:23:16.727Z,7.15
2023-03-18T08:25:43.592Z,7.03
2023-03-18T08:28:11.871Z,7.32
2023-03-18T08:30:39.545Z,7.15
2023-03-18T08:33:06.474Z,7.45
2023-03-18T08:35:34.261Z,6.68
2023-03-18T08:38:01.337Z,7.43
2023-03-18T08:40:28.444Z,8.25
2023-03-18T08:42:55.114Z,8.00
2023-03-18T08:45:21.848Z,7.40
2023-03-18T08:47:48.532Z,8.93
2023-03-18T08:50:16.033Z,8.48
2023-03-18T08:52:42.688Z,7.50
2023-03-18T08:55:09.775Z,8.32
2023-03-18T08:57:37.470Z,8.32
2023-03-18T09:00:05.594Z,8.02
2023-03-18T09:02:33.798Z,8.38
2023-03-18T09:05:00.659Z,8.48
2023-03-18T09:07:28.466Z,8.25
2023-03-18T09:09:55.282Z,8.70
2023-03-18T09:12:22.724Z,7.55
2023-03-18T09:14:49.473Z,8.27
2023-03-18T09:17:16.810Z,7.93
2023-03-18T09:19:43.542Z,7.53
2023-03-18T09:22:10.423Z,8.23
2023-03-18T09:24:37.264Z,7.30
2023-03-18T09:27:04.170Z,8.13
2023-03-18T09:29:30.816Z,8.23
2023-03-18T09:31:57.887Z,7.57
2023-03-18T09:34:24.719Z,7.70
2023-03-18T09:36:51.682Z,7.20
2023-03-18T09:39:22.046Z,7.53
2023-03-18T09:42:07.682Z,7.82
2023-03-18T09:44:36.980Z,7.60
2023-03-18T09:47:38.735Z,7.65
2023-03-18T09:50:31.750Z,7.20
2023-03-18T09:53:21.071Z,7.70
2023-03-18T09:55:53.734Z,8.07
2023-03-18T09:58:59.292Z,7.10
2023-03-18T10:01:28.272Z,6.82
2023-03-18T10:04:20.104Z,7.88
2023-03-18T10:06:50.852Z,7.68
2023-03-18T10:09:27.476Z,6.93
2023-03-18T10:14:42.552Z,6.30
2023-03-18T10:17:31.152Z,6.68
2023-03-18T10:20:00.827Z,6.07
2023-03-18T10:22:45.528Z,6.00
2023-03-18T10:25:34.347Z,6.60
2023-03-18T10:28:10.536Z,6.13
2023-03-18T10:30:55.539Z,5.55
2023-03-18T10:33:36.764Z,5.83
2023-03-18T10:36:12.537Z,5.93
2023-03-18T10:38:50.033Z,5.80
2023-03-18T10:41:28.343Z,5.90
2023-03-18T10:43:57.149Z,5.38
2023-03-18T10:46:26.953Z,4.82
2023-03-18T10:49:06.323Z,5.00
2023-03-18T10:51:40.216Z,5.20
2023-03-18T10:54:15.942Z,4.68
2023-03-18T10:56:43.282Z,4.20
2023-03-18T10:59:13.585Z,4.47
2023-03-18T11:01:41.703Z,4.60
2023-03-18T11:04:15.138Z,4.03
2023-03-18T11:06:56.122Z,4.05
2023-03-18T11:09:30.616Z,3.88
2023-03-18T11:12:02.854Z,3.88
2023-03-18T11:14:31.677Z,3.88
2023-03-18T11:17:01.278Z,3.70
2023-03-18T11:19:39.876Z,3.95
2023-03-18T11:22:28.168Z,4.13
2023-03-18T11:25:18.048Z,3.30
2023-03-18T11:27:52.388Z,3.75
2023-03-18T11:30:33.027Z,4.30
2023-03-18T11:33:13.117Z,3.42
2023-03-18T11:35:46.327Z,3.17
2023-03-18T11:38:20.115Z,3.40
2023-03-18T11:40:46.971Z,3.25
2023-03-18T11:43:19.647Z,3.45
2023-03-18T11:45:52.224Z,3.80
2023-03-18T11:48:38.442Z,3.35
2023-03-18T11:51:13.700Z,2.80
2023-03-18T11:54:09.401Z,3.08
2023-03-18T11:57:08.738Z,2.55
2023-03-18T11:59:56.906Z,2.63
2023-03-18T12:02:47.109Z,2.80
2023-03-18T12:05:35.765Z,2.72
2023-03-18T12:08:13.891Z,2.78
2023-03-18T12:10:58.779Z,2.58
2023-03-18T12:14:04.399Z,2.90
2023-03-18T12:16:50.572Z,2.25
2023-03-18T12:19:35.711Z,2.40
2023-03-18T12:22:08.355Z,2.50
2023-03-18T12:24:58.691Z,2.55
2023-03-18T12:27:43.072Z,2.20
2023-03-18T12:30:41.319Z,2.17
2023-03-18T12:33:35.821Z,2.10
2023-03-18T12:36:24.472Z,2.30
2023-03-18T12:38:54.263Z,2.30
2023-03-18T12:41:31.035Z,2.15
2023-03-18T12:44:12.547Z,1.90
2023-03-18T12:47:09.296Z,2.00
2023-03-18T12:49:47.721Z,2.13
2023-03-18T12:52:27.038Z,2.08
2023-03-18T12:55:18.971Z,2.03
2023-03-18T12:57:50.838Z,1.85
2023-03-18T13:00:24.041Z,2.40
2023-03-18T13:03:00.257Z,2.13
2023-03-18T13:06:05.237Z,2.15
2023-03-18T13:08:55.375Z,2.40
2023-03-18T13:11:37.441Z,2.20
2023-03-18T13:14:19.609Z,2.25
2023-03-18T13:16:49.886Z,2.28
2023-03-18T13:19:18.429Z,2.22
2023-03-18T13:21:51.941Z,1.92
2023-03-18T13:24:37.689Z,2.15
2023-03-18T13:27:10.404Z,2.10
2023-03-18T13:29:49.315Z,1.75
2023-03-18T13:32:21.679Z,1.65
2023-03-18T13:35:26.758Z,1.90
2023-03-18T13:38:21.502Z,1.80
2023-03-18T13:40:54.251Z,1.98
2023-03-18T13:43:24.238Z,1.80
2023-03-18T13:45:53.591Z,1.90
2023-03-18T13:48:41.513Z,1.77
2023-03-18T13:51:20.661Z,1.80
2023-03-18T13:53:50.699Z,1.50
2023-03-18T13:56:44.666Z,1.70
2023-03-18T13:59:32.870Z,1.60
2023-03-18T14:02:43.753Z,1.35
2023-03-18T14:05:32.425Z,1.30
2023-03-18T14:08:03.348Z,1.38
2023-03-18T14:10:30.421Z,1.17
2023-03-18T14:12:58.997Z,1.42
2023-03-18T14:15:45.971Z,1.27
2023-03-18T14:20:59.090Z,1.13
2023-03-18T14:23:37.344Z,1.20
2023-03-18T14:26:08.856Z,1.05
2023-03-18T14:28:48.404Z,1.20
2023-03-18T14:31:50.900Z,1.05
2023-03-18T14:34:17.518Z,1.08
2023-03-18T14:36:46.913Z,1.30
2023-03-18T14:39:36.121Z,1.27
2023-03-18T14:42:10.604Z,0.95
2023-03-18T14:44:46.463Z,1.33
2023-03-18T14:47:37.744Z,0.90
2023-03-18T14:50:24.577Z,1.20
2023-03-18T14:53:02.899Z,1.23
2023-03-18T14:55:35.650Z,1.00
2023-03-18T14:58:03.686Z,1.20
2023-03-18T15:00:35.570Z,1.40
2023-03-18T15:03:13.377Z,1.92
2023-03-18T15:05:42.348Z,1.30
2023-03-18T15:08:17.951Z,1.23
2023-03-18T15:10:49.686Z,1.33
2023-03-18T15:13:20.983Z,1.52
2023-03-18T15:15:49.455Z,1.38
2023-03-18T15:18:24.630Z,1.50
2023-03-18T15:20:57.770Z,1.35
2023-03-18T15:23:34.269Z,1.50
2023-03-18T15:26:04.461Z,1.35
2023-03-18T15:28:32.308Z,1.30
2023-03-18T15:31:01.105Z,1.50
2023-03-18T15:33:36.702Z,1.60
2023-03-18T15:36:07.436Z,1.30
2023-03-18T15:38:34.390Z,1.42
2023-03-18T15:41:06.165Z,1.67
2023-03-18T15:43:41.391Z,1.45
2023-03-18T15:46:19.044Z,1.35
2023-03-18T15:48:55.026Z,1.15
2023-03-18T15:51:30.066Z,1.33
2023-03-18T15:54:03.246Z,1.40
2023-03-18T15:56:36.250Z,1.40
2023-03-18T15:59:13.081Z,1.40
2023-03-18T16:01:40.403Z,1.42
2023-03-18T16:04:12.291Z,1.52
2023-03-18T16:06:40.484Z,1.58
2023-03-18T16:09:23.937Z,1.80
2023-03-18T16:11:55.163Z,2.47
2023-03-18T16:14:25.447Z,1.83
2023-03-18T16:16:53.107Z,2.00
2023-03-18T16:19:28.315Z,2.20
2023-03-18T16:21:58.262Z,2.30
2023-03-18T16:24:25.994Z,2.00
2023-03-18T16:26:54.691Z,1.90
2023-03-18T16:29:28.901Z,2.08
2023-03-18T16:31:55.976Z,1.92
2023-03-18T16:34:22.762Z,1.80
2023-03-18T16:36:53.730Z,2.00
2023-03-18T16:39:28.029Z,2.00
2023-03-18T16:41:54.888Z,1.70
2023-03-18T16:44:24.069Z,1.90
2023-03-18T16:46:54.593Z,1.63
2023-03-18T16:49:24.304Z,1.52
2023-03-18T16:51:51.712Z,1.50
2023-03-18T16:54:21.379Z,1.60
2023-03-18T16:56:52.445Z,1.40
2023-03-18T16:59:19.825Z,1.50
2023-03-18T17:01:47.026Z,1.40
2023-03-18T17:04:29.618Z,1.50
2023-03-18T17:06:57.768Z,1.27
2023-03-18T17:09:25.764Z,1.60
2023-03-18T17:11:56.368Z,1.55
2023-03-18T17:14:38.009Z,1.45
2023-03-18T17:17:21.860Z,1.00
2023-03-18T17:19:48.705Z,1.23
2023-03-18T17:22:24.497Z,1.05
2023-03-18T17:24:51.282Z,1.27
2023-03-18T17:27:22.849Z,1.40
2023-03-18T17:29:50.275Z,1.65
2023-03-18T17:32:19.638Z,1.40
2023-03-18T17:34:48.388Z,1.20
2023-03-18T17:37:15.130Z,1.67
2023-03-18T17:39:42.106Z,2.28
2023-03-18T17:42:29.805Z,2.35
2023-03-18T17:45:05.547Z,2.90
2023-03-18T17:47:32.828Z,2.70
2023-03-18T17:50:00.843Z,2.35
2023-03-18T17:52:27.684Z,2.08
2023-03-18T17:54:54.575Z,2.15
2023-03-18T17:57:21.215Z,2.10
2023-03-18T17:59:48.678Z,2.60
2023-03-18T18:02:18.782Z,1.85
2023-03-18T18:04:45.958Z,2.63
2023-03-18T18:07:22.063Z,2.92
2023-03-18T18:09:49.773Z,3.63
2023-03-18T18:12:25.463Z,2.83
2023-03-18T18:14:52.516Z,2.77
2023-03-18T18:17:19.242Z,3.20
2023-03-18T18:19:46.434Z,3.28
2023-03-18T18:22:26.451Z,3.10
2023-03-18T18:24:54.545Z,3.70
2023-03-18T18:27:21.232Z,3.83
2023-03-18T18:29:48.560Z,3.85
2023-03-18T18:32:15.775Z,4.60
2023-03-18T18:34:42.435Z,4.70
2023-03-18T18:37:09.554Z,5.20
2023-03-18T18:39:36.407Z,5.03
2023-03-18T18:42:04.310Z,4.65
2023-03-18T18:44:31.748Z,4.90
2023-03-18T18:46:58.918Z,4.28
2023-03-18T18:49:26.921Z,4.90
2023-03-18T18:51:55.837Z,4.90
2023-03-18T18:54:24.077Z,4.78
2023-03-18T18:56:51.485Z,8.90
2023-03-18T18:59:24.932Z,14.43
2023-03-18T19:01:53.013Z,11.93
2023-03-18T19:04:21.996Z,6.70
2023-03-18T19:06:51.025Z,6.95
2023-03-18T19:09:26.014Z,6.60
2023-03-18T19:11:55.354Z,5.25
2023-03-18T19:14:27.405Z,5.40
2023-03-18T19:16:57.464Z,4.60
2023-03-18T19:19:34.459Z,4.85
2023-03-18T19:22:02.951Z,4.85
2023-03-18T19:24:36.956Z,4.53
2023-03-18T19:27:07.277Z,4.40
2023-03-18T19:29:34.275Z,4.57
2023-03-18T19:32:03.982Z,4.65
2023-03-18T19:34:32.506Z,4.40
2023-03-18T19:37:02.567Z,4.72
2023-03-18T19:39:29.247Z,4.88
2023-03-18T19:41:56.097Z,4.70
2023-03-18T19:44:25.655Z,4.78
2023-03-18T19:46:55.038Z,4.68
2023-03-18T19:49:32.835Z,4.53
2023-03-18T19:52:00.123Z,5.10
2023-03-18T19:54:32.224Z,5.32
2023-03-18T19:57:02.395Z,5.78
2023-03-18T19:59:37.470Z,5.90
2023-03-18T20:02:41.791Z,5.30
2023-03-18T20:05:20.656Z,4.63
2023-03-18T20:07:47.570Z,5.03
2023-03-18T20:10:14.521Z,5.03
2023-03-18T20:12:44.415Z,5.45
2023-03-18T20:15:18.644Z,5.80
2023-03-18T20:17:47.086Z,5.63
2023-03-18T20:20:17.076Z,5.25
2023-03-18T20:22:52.802Z,5.38
2023-03-18T20:25:24.393Z,5.68
2023-03-18T20:27:53.593Z,5.03
2023-03-18T20:30:33.757Z,5.13
2023-03-18T20:33:00.715Z,5.40
2023-03-18T20:35:29.718Z,5.03
2023-03-18T20:37:58.328Z,5.90
2023-03-18T20:40:28.324Z,6.47
2023-03-18T20:42:55.371Z,6.78
2023-03-18T20:45:23.124Z,6.60
2023-03-18T20:47:50.216Z,6.45
2023-03-18T20:50:23.471Z,6.50
2023-03-18T20:52:51.942Z,6.05
2023-03-18T20:55:19.815Z,6.07
2023-03-18T20:57:46.956Z,6.70
2023-03-18T21:00:23.203Z,6.60
2023-03-18T21:02:52.907Z,6.57
2023-03-18T21:05:20.061Z,6.10
2023-03-18T21:07:49.602Z,6.22
2023-03-18T21:10:20.133Z,7.13
2023-03-18T21:12:47.070Z,7.03
2023-03-18T21:15:17.091Z,6.88
2023-03-18T21:17:45.785Z,6.93
2023-03-18T21:20:22.963Z,6.13
2023-03-18T21:22:50.884Z,7.03
2023-03-18T21:25:20.155Z,6.72
2023-03-18T21:27:47.587Z,7.50
2023-03-18T21:30:15.941Z,6.45
2023-03-18T21:32:44.753Z,6.57
2023-03-18T21:35:23.404Z,5.90
2023-03-18T21:37:50.819Z,6.50
2023-03-18T21:40:23.612Z,6.45
2023-03-18T21:42:51.631Z,5.75
2023-03-18T21:45:21.236Z,5.70
2023-03-18T21:47:48.017Z,5.80
2023-03-18T21:50:24.211Z,5.28
2023-03-18T21:52:52.863Z,5.03
2023-03-18T21:55:21.169Z,5.57
2023-03-18T21:57:49.206Z,5.32
2023-03-18T22:00:19.841Z,4.80
2023-03-18T22:02:47.534Z,6.28
2023-03-18T22:05:18.862Z,5.30
2023-03-18T22:07:46.222Z,5.35
2023-03-18T22:10:16.931Z,5.35
2023-03-18T22:12:44.328Z,5.90
2023-03-18T22:15:33.850Z,5.80
2023-03-18T22:18:01.185Z,5.63
2023-03-18T22:20:28.173Z,5.50
2023-03-18T22:22:55.081Z,5.38
2023-03-18T22:25:35.033Z,5.63
2023-03-18T22:28:02.399Z,5.95
2023-03-18T22:30:31.647Z,5.90
2023-03-18T22:32:59.856Z,6.25
2023-03-18T22:35:28.477Z,6.03
2023-03-18T22:37:56.108Z,6.15
2023-03-18T22:40:28.244Z,5.78
2023-03-18T22:43:01.807Z,5.63
2023-03-18T22:45:33.850Z,6.05
2023-03-18T22:48:04.951Z,5.60
2023-03-18T22:50:35.106Z,5.55
2023-03-18T22:53:05.449Z,5.55
2023-03-18T22:55:36.740Z,6.03
2023-03-18T22:58:03.624Z,6.00
2023-03-18T23:00:39.547Z,5.88
2023-03-18T23:03:36.517Z,5.80
2023-03-18T23:06:04.303Z,5.75
2023-03-18T23:08:31.205Z,6.53
2023-03-18T23:11:01.653Z,6.05
2023-03-18T23:13:43.467Z,6.03
2023-03-18T23:16:18.933Z,6.45
2023-03-18T23:18:45.637Z,6.00
2023-03-18T23:21:18.007Z,6.40
2023-03-18T23:23:45.098Z,5.82
2023-03-18T23:26:12.003Z,5.82
2023-03-18T23:28:44.479Z,6.00
2023-03-18T23:31:12.287Z,6.15
2023-03-18T23:33:38.905Z,6.18
2023-03-18T23:36:05.870Z,6.45
2023-03-18T23:38:32.643Z,5.55
2023-03-18T23:40:59.302Z,5.20
2023-03-18T23:43:26.275Z,5.53
2023-03-18T23:45:53.555Z,6.10
2023-03-18T23:48:20.367Z,6.30
2023-03-18T23:50:47.286Z,5.72
2023-03-18T23:53:13.868Z,6.05
2023-03-18T23:55:40.592Z,6.72
2023-03-18T23:58:07.188Z,6.18
